首页
METAR-TAF:

METAR-TAF

机场 :

安卡拉埃森博阿, 土耳其

埃森博阿国际机场

纬度: 40-07N, 经度: 032-59E, 海拔: 953米

当前天气观测

该预报发布于26分钟前的01:20 UTC
风速7节,风向西
温度 0°C
湿度 64%
气压 1004 hPa
能见度10公里或以上
散云层高于4000英尺
多云层高于10000英尺

METAR: LTAC 190120Z 26007KT 9999 SCT040 BKN100 M00/M06 Q1004 NOSIG RMK RWY21L 25003KT 220V350 RWY03L 24005KT 210V270 RWY21R VRB02KT

时间: 04:46 (01:46 UTC)

预报

该预报发布于3小时和6分钟前的22:40 UTC
预报有效从19日的 00点(UTC)到 19日的 24点(UTC)
风速12节,风向西转西北
能见度10公里或以上
散云层高于3500英尺
多云层高于9000英尺
成为
从 19日的 09点(UTC)到 19日的 12点(UTC)
风速2节,风向多变

TAF: LTAC 182240Z 1900/1924 30012KT 9999 SCT035 BKN090 BECMG 1909/1912 VRB02KT

超过4000个机场的气象观测和天气预报(METAR&TAF报告)。

可查询的气象台以黄色和红色小点在地图上表示。

将鼠标移到小点上方,可查看气象台名称。

然后点击查看天气观测和预报。

如需切换地图:点击带黑十字的绿色按钮放大地图;点击带横线的绿色按钮缩小地图;或者点击绿色箭头查看邻近地区的地图。


METAR-TAF: